createdAt,value
2018-12-06T00:00:51.190Z,5.93
2018-12-06T00:03:18.941Z,7.00
2018-12-06T00:05:46.702Z,8.10
2018-12-06T00:08:16.629Z,7.40
2018-12-06T00:10:44.486Z,7.10
2018-12-06T00:13:12.302Z,7.33
2018-12-06T00:15:40.006Z,10.13
2018-12-06T00:18:09.162Z,8.00
2018-12-06T00:20:37.638Z,7.90
2018-12-06T00:23:05.506Z,9.40
2018-12-06T00:26:42.608Z,9.77
2018-12-06T00:29:10.914Z,11.27
2018-12-06T00:31:39.660Z,9.77
2018-12-06T00:34:07.372Z,10.70
2018-12-06T00:36:35.193Z,12.43
2018-12-06T00:39:04.772Z,11.03
2018-12-06T00:41:32.518Z,15.93
2018-12-06T00:44:00.234Z,10.30
2018-12-06T00:46:28.153Z,11.47
2018-12-06T00:48:56.735Z,10.87
2018-12-06T00:51:25.197Z,18.00
2018-12-06T00:53:52.863Z,15.33
2018-12-06T00:56:21.340Z,14.40
2018-12-06T00:58:49.225Z,14.63
2018-12-06T01:01:17.157Z,16.43
2018-12-06T01:03:44.878Z,18.70
2018-12-06T01:06:12.700Z,15.37
2018-12-06T01:08:40.339Z,12.97
2018-12-06T01:11:08.135Z,23.37
2018-12-06T01:13:36.023Z,23.07
2018-12-06T01:16:04.066Z,18.73
2018-12-06T01:18:31.723Z,13.90
2018-12-06T01:20:59.527Z,17.80
2018-12-06T01:23:27.496Z,21.50
2018-12-06T01:25:55.175Z,17.20
2018-12-06T01:28:26.193Z,18.77
2018-12-06T01:30:53.974Z,14.00
2018-12-06T01:33:21.682Z,19.30
2018-12-06T01:35:49.443Z,15.17
2018-12-06T01:38:17.957Z,19.37
2018-12-06T01:40:45.811Z,15.53
2018-12-06T01:43:13.625Z,13.47
2018-12-06T01:45:41.426Z,15.80
2018-12-06T01:48:09.590Z,21.53
2018-12-06T01:50:37.398Z,17.87
2018-12-06T01:53:05.639Z,20.23
2018-12-06T01:55:33.502Z,19.80
2018-12-06T01:58:01.240Z,17.17
2018-12-06T02:00:28.981Z,13.80
2018-12-06T02:02:56.751Z,15.90
2018-12-06T02:05:24.431Z,22.50
2018-12-06T02:07:52.172Z,18.77
2018-12-06T02:10:19.980Z,18.80
2018-12-06T02:12:51.024Z,13.87
2018-12-06T02:15:18.708Z,19.03
2018-12-06T02:17:47.318Z,13.73
2018-12-06T02:20:15.120Z,22.23
2018-12-06T02:22:42.877Z,11.00
2018-12-06T02:25:10.708Z,11.00
2018-12-06T02:27:38.500Z,12.57
2018-12-06T02:30:07.139Z,11.60
2018-12-06T02:32:35.097Z,12.57
2018-12-06T02:35:02.946Z,12.07
2018-12-06T02:37:30.703Z,11.50
2018-12-06T02:39:58.524Z,17.53
2018-12-06T02:42:27.031Z,10.53
2018-12-06T02:44:54.787Z,15.17
2018-12-06T02:47:22.610Z,11.17
2018-12-06T02:49:50.569Z,10.23
2018-12-06T02:52:18.960Z,10.07
2018-12-06T02:54:46.900Z,9.07
2018-12-06T02:57:14.666Z,10.07
2018-12-06T02:59:42.485Z,11.20
2018-12-06T03:02:10.158Z,11.43
2018-12-06T03:04:37.860Z,9.37
2018-12-06T03:07:05.602Z,11.83
2018-12-06T03:09:33.281Z,10.37
2018-12-06T03:12:00.978Z,13.70
2018-12-06T03:14:28.651Z,9.83
2018-12-06T03:16:56.675Z,10.50
2018-12-06T03:19:24.346Z,10.13
2018-12-06T03:21:52.170Z,9.80
2018-12-06T03:24:19.960Z,17.93
2018-12-06T03:26:47.719Z,13.60
2018-12-06T03:29:15.543Z,12.63
2018-12-06T03:31:43.282Z,11.20
2018-12-06T03:34:10.951Z,13.73
2018-12-06T03:36:38.682Z,11.20
2018-12-06T03:39:06.659Z,11.23
2018-12-06T03:41:34.474Z,17.63
2018-12-06T03:44:02.135Z,13.63
2018-12-06T03:46:29.889Z,14.17
2018-12-06T03:48:57.619Z,18.17
2018-12-06T03:51:25.436Z,15.07
2018-12-06T03:53:53.291Z,14.73
2018-12-06T03:56:21.005Z,15.93
2018-12-06T03:58:49.615Z,14.60
2018-12-06T04:01:17.417Z,14.57
2018-12-06T04:03:45.279Z,18.40
2018-12-06T04:06:13.073Z,15.67
2018-12-06T04:08:40.900Z,17.27
2018-12-06T04:11:08.680Z,17.50
2018-12-06T04:13:36.403Z,16.73
2018-12-06T04:16:04.198Z,27.93
2018-12-06T04:18:32.073Z,15.77
2018-12-06T04:20:59.793Z,15.33
2018-12-06T04:23:27.503Z,13.03
2018-12-06T04:25:55.257Z,14.70
2018-12-06T04:28:22.982Z,15.93
2018-12-06T04:30:50.796Z,12.80
2018-12-06T04:33:18.546Z,13.03
2018-12-06T04:35:46.350Z,12.13
2018-12-06T04:38:14.063Z,18.43
2018-12-06T04:40:42.007Z,17.43
2018-12-06T04:43:09.720Z,13.63
2018-12-06T04:45:37.582Z,18.90
2018-12-06T04:48:05.231Z,13.80
2018-12-06T04:50:32.969Z,12.27
2018-12-06T04:53:00.670Z,13.63
2018-12-06T04:55:28.568Z,13.43
2018-12-06T04:57:56.301Z,19.30
2018-12-06T05:00:24.028Z,13.77
2018-12-06T05:02:51.835Z,17.43
2018-12-06T05:05:19.554Z,16.07
2018-12-06T05:07:47.329Z,16.17
2018-12-06T05:10:15.164Z,20.40
2018-12-06T05:12:42.914Z,16.50
2018-12-06T05:15:10.643Z,19.87
2018-12-06T05:17:38.311Z,14.63
2018-12-06T05:20:06.690Z,16.20
2018-12-06T05:22:34.418Z,14.63
2018-12-06T05:25:02.235Z,14.53
2018-12-06T05:27:29.947Z,23.63
2018-12-06T05:29:57.689Z,12.80
2018-12-06T05:32:25.422Z,23.37
2018-12-06T05:34:53.863Z,15.70
2018-12-06T05:37:21.579Z,16.97
2018-12-06T05:39:49.538Z,14.70
2018-12-06T05:42:17.401Z,18.80
2018-12-06T05:44:45.341Z,15.10
2018-12-06T05:47:13.282Z,19.00
2018-12-06T05:49:41.014Z,16.47
2018-12-06T05:52:08.861Z,22.50
2018-12-06T05:54:36.684Z,16.10
2018-12-06T05:57:04.632Z,22.80
2018-12-06T05:59:32.445Z,17.63
2018-12-06T06:02:00.208Z,24.53
2018-12-06T06:04:28.020Z,20.37
2018-12-06T06:06:57.708Z,22.50
2018-12-06T06:09:25.689Z,25.07
2018-12-06T06:11:53.446Z,35.90
2018-12-06T06:14:21.167Z,22.13
2018-12-06T06:16:48.889Z,26.50
2018-12-06T06:19:16.766Z,19.33
2018-12-06T06:21:44.583Z,26.13
2018-12-06T06:24:12.569Z,22.27
2018-12-06T06:26:40.857Z,26.23
2018-12-06T06:29:08.483Z,28.70
2018-12-06T06:31:36.277Z,26.23
2018-12-06T06:34:03.979Z,24.00
2018-12-06T06:36:31.756Z,29.57
2018-12-06T06:39:00.286Z,31.20
2018-12-06T06:41:28.050Z,31.97
2018-12-06T06:43:56.525Z,30.30
2018-12-06T06:46:24.339Z,34.23
2018-12-06T06:48:52.061Z,28.10
2018-12-06T06:51:20.230Z,33.23
2018-12-06T06:53:49.509Z,30.60
2018-12-06T06:56:17.760Z,27.47
2018-12-06T06:58:45.577Z,27.30
2018-12-06T07:01:14.302Z,30.30
2018-12-06T07:03:42.556Z,25.43
2018-12-06T07:06:10.303Z,26.93
2018-12-06T07:08:38.053Z,28.90
2018-12-06T07:11:05.630Z,34.00
2018-12-06T07:13:33.364Z,21.77
2018-12-06T07:16:01.128Z,22.70
2018-12-06T07:18:28.951Z,35.17
2018-12-06T07:20:56.733Z,24.70
2018-12-06T07:23:24.445Z,25.33
2018-12-06T07:25:52.173Z,20.07
2018-12-06T07:28:20.348Z,25.67
2018-12-06T07:30:48.087Z,22.13
2018-12-06T07:33:16.696Z,23.63
2018-12-06T07:35:44.433Z,21.50
2018-12-06T07:38:12.352Z,23.07
2018-12-06T07:40:40.044Z,16.97
2018-12-06T07:43:07.950Z,19.13
2018-12-06T07:45:35.673Z,31.33
2018-12-06T07:48:03.428Z,30.50
2018-12-06T07:50:31.220Z,19.13
2018-12-06T07:52:59.130Z,25.40
2018-12-06T07:55:26.875Z,22.23
2018-12-06T07:57:54.544Z,18.23
2018-12-06T08:00:22.358Z,16.53
2018-12-06T08:02:50.027Z,15.77
2018-12-06T08:05:17.719Z,19.03
2018-12-06T08:07:45.451Z,13.77
2018-12-06T08:10:13.318Z,25.13
2018-12-06T08:12:41.034Z,16.53
2018-12-06T08:15:09.106Z,15.17
2018-12-06T08:17:36.841Z,14.40
2018-12-06T08:20:05.249Z,15.47
2018-12-06T08:22:32.975Z,18.27
2018-12-06T08:25:00.756Z,18.63
2018-12-06T08:27:28.487Z,15.67
2018-12-06T08:29:56.196Z,19.27
2018-12-06T08:32:23.983Z,14.10
2018-12-06T08:34:51.811Z,19.67
2018-12-06T08:37:19.657Z,16.43
2018-12-06T08:39:47.345Z,19.27
2018-12-06T08:42:14.993Z,18.57
2018-12-06T08:44:42.867Z,19.37
2018-12-06T08:47:10.598Z,17.60
2018-12-06T08:49:38.530Z,17.17
2018-12-06T08:52:06.317Z,11.57
2018-12-06T08:54:34.845Z,18.60
2018-12-06T08:57:02.568Z,17.10
2018-12-06T08:59:30.397Z,13.70
2018-12-06T09:01:58.283Z,13.20
2018-12-06T09:04:25.986Z,11.87
2018-12-06T09:06:53.737Z,11.53
2018-12-06T09:09:21.494Z,15.33
2018-12-06T09:11:49.206Z,12.57
2018-12-06T09:14:16.930Z,19.90
2018-12-06T09:16:45.076Z,14.57
2018-12-06T09:19:14.758Z,14.13
2018-12-06T09:21:42.725Z,12.90
2018-12-06T09:24:10.486Z,15.57
2018-12-06T09:26:38.289Z,13.23
2018-12-06T09:29:06.081Z,13.37
2018-12-06T09:31:33.820Z,11.90
2018-12-06T09:34:04.570Z,11.63
2018-12-06T09:36:32.864Z,15.27
2018-12-06T09:39:01.136Z,16.50
2018-12-06T09:41:29.828Z,14.27
2018-12-06T09:43:57.609Z,18.50
2018-12-06T09:46:25.548Z,14.30
2018-12-06T09:48:53.321Z,19.23
2018-12-06T09:51:20.990Z,18.57
2018-12-06T09:53:48.760Z,18.00
2018-12-06T09:56:17.389Z,21.30
2018-12-06T09:58:45.241Z,20.90
2018-12-06T10:01:14.637Z,16.97
2018-12-06T10:03:43.317Z,22.53
2018-12-06T10:06:11.141Z,21.17
2018-12-06T10:08:39.011Z,23.17
2018-12-06T10:11:06.751Z,24.90
2018-12-06T10:13:34.624Z,25.00
2018-12-06T10:16:02.365Z,23.77
2018-12-06T10:18:30.079Z,26.00
2018-12-06T10:20:57.744Z,25.17
2018-12-06T10:23:25.572Z,26.57
2018-12-06T10:25:53.813Z,22.83
2018-12-06T10:28:21.554Z,24.87
2018-12-06T10:30:49.342Z,23.57
2018-12-06T10:33:17.128Z,24.77
2018-12-06T10:35:44.868Z,24.43
2018-12-06T10:38:12.585Z,26.43
2018-12-06T10:40:40.327Z,21.13
2018-12-06T10:43:08.254Z,23.07
2018-12-06T10:45:36.079Z,24.60
2018-12-06T10:48:03.823Z,24.53
2018-12-06T10:50:31.643Z,21.87
2018-12-06T10:52:59.692Z,29.47
2018-12-06T10:55:27.510Z,19.47
2018-12-06T10:57:55.352Z,24.30
2018-12-06T11:00:24.927Z,26.83
2018-12-06T11:02:54.538Z,27.30
2018-12-06T11:05:22.277Z,23.77
2018-12-06T11:07:50.017Z,25.90
2018-12-06T11:10:17.733Z,24.37
2018-12-06T11:12:45.499Z,26.57
2018-12-06T11:15:13.327Z,30.50
2018-12-06T11:17:41.060Z,33.73
2018-12-06T11:20:08.836Z,30.87
2018-12-06T11:22:36.670Z,33.10
2018-12-06T11:25:05.578Z,27.67
2018-12-06T11:27:33.360Z,31.93
2018-12-06T11:30:01.179Z,32.00
2018-12-06T11:32:28.962Z,31.97
2018-12-06T11:34:56.766Z,31.67
2018-12-06T11:37:24.889Z,28.20
2018-12-06T11:39:52.756Z,31.17
2018-12-06T11:42:21.076Z,28.27
2018-12-06T11:44:48.796Z,31.87
2018-12-06T11:47:16.563Z,29.07
2018-12-06T11:49:44.325Z,31.40
2018-12-06T11:52:12.092Z,43.20
2018-12-06T11:54:39.851Z,34.37
2018-12-06T11:57:08.512Z,31.50
2018-12-06T11:59:36.358Z,35.83
2018-12-06T12:02:09.956Z,31.03
2018-12-06T12:04:35.261Z,40.57
2018-12-06T12:07:03.103Z,44.13
2018-12-06T12:09:31.327Z,45.93
2018-12-06T12:11:59.058Z,54.10
2018-12-06T12:14:27.451Z,36.90
2018-12-06T12:16:55.156Z,46.40
2018-12-06T12:19:25.324Z,40.90
2018-12-06T12:21:56.899Z,43.50
2018-12-06T12:24:24.752Z,44.93
2018-12-06T12:26:52.415Z,61.53
2018-12-06T12:29:20.260Z,37.20
2018-12-06T12:31:48.029Z,44.07
2018-12-06T12:34:16.307Z,38.93
2018-12-06T12:36:44.062Z,43.87
2018-12-06T12:39:11.816Z,29.60
2018-12-06T12:41:39.657Z,35.50
2018-12-06T12:44:07.472Z,33.20
2018-12-06T12:46:35.231Z,32.53
2018-12-06T12:49:02.999Z,25.53
2018-12-06T12:51:30.960Z,30.43
2018-12-06T12:53:58.767Z,28.00
2018-12-06T12:56:26.740Z,26.77
2018-12-06T12:58:55.335Z,29.73
2018-12-06T13:01:23.100Z,26.27
2018-12-06T13:03:50.915Z,33.13
2018-12-06T13:06:19.514Z,25.43
2018-12-06T13:08:47.365Z,24.63
2018-12-06T13:11:15.454Z,25.57
2018-12-06T13:13:43.302Z,24.50
2018-12-06T13:16:11.126Z,29.57
2018-12-06T13:18:39.100Z,19.80
2018-12-06T13:21:07.154Z,33.27
2018-12-06T13:23:36.586Z,18.77
2018-12-06T13:26:04.472Z,26.37
2018-12-06T13:28:32.299Z,19.47
2018-12-06T13:31:00.437Z,19.00
2018-12-06T13:33:28.599Z,17.30
2018-12-06T13:35:56.524Z,29.70
2018-12-06T13:38:25.544Z,19.53
2018-12-06T13:40:53.465Z,23.73
2018-12-06T13:43:21.283Z,31.20
2018-12-06T13:45:49.715Z,13.10
2018-12-06T13:48:17.939Z,25.53
2018-12-06T13:50:46.002Z,25.27
2018-12-06T13:53:14.283Z,15.80
2018-12-06T13:55:42.078Z,23.97
2018-12-06T13:58:09.956Z,18.67
2018-12-06T14:00:37.978Z,25.93
2018-12-06T14:03:06.070Z,19.23
2018-12-06T14:05:33.853Z,21.70
2018-12-06T14:08:01.606Z,14.70
2018-12-06T14:10:29.418Z,13.20
2018-12-06T14:12:57.142Z,17.70
2018-12-06T14:15:25.229Z,20.37
2018-12-06T14:17:52.954Z,22.00
2018-12-06T14:20:20.674Z,14.43
2018-12-06T14:22:48.383Z,13.93
2018-12-06T14:25:16.117Z,17.13
2018-12-06T14:27:43.911Z,12.00
2018-12-06T14:30:12.038Z,16.43
2018-12-06T14:32:39.717Z,12.80
2018-12-06T14:35:07.919Z,15.30
2018-12-06T14:37:35.775Z,18.53
2018-12-06T14:40:05.302Z,15.10
2018-12-06T14:42:33.159Z,25.63
2018-12-06T14:45:00.996Z,21.40
2018-12-06T14:47:29.205Z,14.13
2018-12-06T14:49:57.007Z,15.23
2018-12-06T14:52:25.556Z,17.50
2018-12-06T14:54:53.584Z,11.60
2018-12-06T14:57:21.256Z,15.13
2018-12-06T14:59:49.343Z,16.63
2018-12-06T15:02:17.059Z,14.03
2018-12-06T15:04:44.792Z,23.57
2018-12-06T15:07:12.624Z,13.47
2018-12-06T15:09:40.626Z,18.97
2018-12-06T15:12:08.337Z,9.30
2018-12-06T15:14:36.306Z,20.87
2018-12-06T15:17:04.071Z,14.40
2018-12-06T15:19:31.777Z,16.33
2018-12-06T15:21:59.558Z,16.10
2018-12-06T15:24:27.563Z,13.27
2018-12-06T15:26:55.380Z,20.17
2018-12-06T15:29:23.229Z,17.40
2018-12-06T15:31:51.268Z,19.63
2018-12-06T15:34:19.065Z,18.00
2018-12-06T15:36:46.898Z,23.67
2018-12-06T15:39:14.714Z,19.60
2018-12-06T15:41:42.524Z,16.57
2018-12-06T15:44:10.244Z,13.33
2018-12-06T15:46:38.580Z,16.23
2018-12-06T15:49:06.492Z,19.20
2018-12-06T15:51:34.331Z,22.47
2018-12-06T15:54:02.208Z,19.00
2018-12-06T15:56:29.994Z,13.00
2018-12-06T15:58:57.740Z,17.33
2018-12-06T16:01:25.615Z,22.43
2018-12-06T16:03:53.291Z,15.80
2018-12-06T16:06:21.102Z,26.67
2018-12-06T16:08:48.765Z,13.50
2018-12-06T16:11:16.558Z,27.93
2018-12-06T16:13:44.784Z,23.00
2018-12-06T16:16:12.514Z,17.30
2018-12-06T16:18:40.301Z,17.07
2018-12-06T16:21:08.051Z,15.20
2018-12-06T16:23:35.794Z,20.03
2018-12-06T16:26:03.483Z,31.13
2018-12-06T16:28:31.244Z,14.37
2018-12-06T16:30:59.412Z,18.17
2018-12-06T16:33:27.404Z,21.93
2018-12-06T16:35:55.247Z,15.27
2018-12-06T16:38:23.431Z,17.50
2018-12-06T16:40:51.212Z,8.97
2018-12-06T16:43:18.949Z,18.03
2018-12-06T16:45:46.894Z,19.33
2018-12-06T16:48:14.737Z,14.53
2018-12-06T16:50:42.481Z,10.83
2018-12-06T16:53:11.845Z,16.43
2018-12-06T16:55:39.797Z,10.90
2018-12-06T16:58:07.662Z,12.80
2018-12-06T17:00:35.717Z,11.57
2018-12-06T17:03:04.290Z,16.00
2018-12-06T17:05:32.193Z,8.10
2018-12-06T17:08:03.501Z,9.67
2018-12-06T17:10:32.662Z,12.90
2018-12-06T17:13:00.607Z,7.73
2018-12-06T17:15:29.084Z,13.77
2018-12-06T17:17:56.917Z,10.93
2018-12-06T17:20:24.878Z,10.67
2018-12-06T17:22:52.686Z,19.23
2018-12-06T17:25:21.170Z,15.10
2018-12-06T17:27:48.899Z,20.20
2018-12-06T17:30:17.101Z,14.67
2018-12-06T17:32:45.244Z,13.27
2018-12-06T17:35:13.101Z,9.23
2018-12-06T17:37:41.043Z,15.13
2018-12-06T17:40:08.972Z,14.60
2018-12-06T17:42:37.558Z,11.03
2018-12-06T17:45:06.883Z,14.77
2018-12-06T17:47:34.837Z,10.37
2018-12-06T17:50:03.835Z,11.60
2018-12-06T17:52:31.615Z,14.83
2018-12-06T17:54:59.621Z,15.83
2018-12-06T17:57:27.368Z,14.83
2018-12-06T17:59:55.294Z,12.40
2018-12-06T18:02:23.205Z,19.83
2018-12-06T18:04:50.975Z,10.97
2018-12-06T18:07:20.690Z,9.67
2018-12-06T18:09:49.487Z,11.03
2018-12-06T18:12:17.349Z,15.03
2018-12-06T18:14:45.159Z,14.10
2018-12-06T18:17:13.085Z,11.43
2018-12-06T18:19:40.877Z,18.17
2018-12-06T18:22:09.345Z,18.70
2018-12-06T18:24:37.125Z,10.63
2018-12-06T18:27:05.113Z,17.60
2018-12-06T18:29:32.899Z,13.27
2018-12-06T18:32:00.930Z,14.80
2018-12-06T18:34:28.902Z,16.97
2018-12-06T18:36:56.749Z,14.57
2018-12-06T18:39:24.550Z,11.90
2018-12-06T18:41:52.248Z,11.93
2018-12-06T18:44:20.172Z,13.77
2018-12-06T18:46:47.901Z,17.57
2018-12-06T18:49:15.750Z,13.10
2018-12-06T18:51:43.602Z,11.37
2018-12-06T18:54:11.734Z,11.00
2018-12-06T18:56:39.880Z,10.80
2018-12-06T18:59:07.902Z,12.87
2018-12-06T19:01:36.523Z,19.30
2018-12-06T19:04:05.240Z,16.33
2018-12-06T19:06:36.712Z,10.03
2018-12-06T19:09:05.315Z,11.13
2018-12-06T19:11:33.842Z,11.07
2018-12-06T19:14:02.687Z,12.33
2018-12-06T19:16:33.265Z,7.50
2018-12-06T19:19:01.238Z,15.67
2018-12-06T19:21:29.160Z,10.80
2018-12-06T19:23:57.102Z,9.20
2018-12-06T19:26:25.043Z,10.07
2018-12-06T19:28:52.897Z,9.07
2018-12-06T19:31:21.028Z,11.53
2018-12-06T19:33:49.002Z,12.50
2018-12-06T19:36:16.721Z,11.03
2018-12-06T19:38:44.724Z,12.40
2018-12-06T19:41:12.409Z,11.50
2018-12-06T19:43:40.333Z,10.07
2018-12-06T19:46:08.233Z,13.33
2018-12-06T19:48:36.087Z,9.47
2018-12-06T19:51:03.928Z,9.37
2018-12-06T19:53:31.896Z,32.50
2018-12-06T19:55:59.745Z,9.50
2018-12-06T19:58:27.761Z,9.40
2018-12-06T20:00:55.801Z,10.33
2018-12-06T20:03:23.989Z,21.73
2018-12-06T20:05:51.948Z,9.60
2018-12-06T20:08:20.006Z,10.53
2018-12-06T20:10:47.922Z,11.23
2018-12-06T20:13:15.760Z,11.70
2018-12-06T20:15:43.622Z,9.70
2018-12-06T20:18:14.079Z,11.07
2018-12-06T20:20:42.467Z,11.60
2018-12-06T20:23:10.731Z,8.77
2018-12-06T20:25:38.637Z,20.87
2018-12-06T20:28:06.817Z,18.80
2018-12-06T20:30:35.122Z,11.83
2018-12-06T20:33:03.096Z,11.30
2018-12-06T20:35:30.989Z,10.50
2018-12-06T20:37:58.854Z,18.77
2018-12-06T20:40:26.758Z,10.67
2018-12-06T20:42:55.338Z,10.67
2018-12-06T20:45:23.133Z,9.97
2018-12-06T20:47:50.954Z,19.73
2018-12-06T20:50:18.704Z,12.10
2018-12-06T20:52:46.605Z,13.23
2018-12-06T20:55:15.604Z,19.80
2018-12-06T20:57:44.002Z,15.30
2018-12-06T21:00:11.865Z,12.30
2018-12-06T21:02:39.614Z,11.83
2018-12-06T21:05:08.271Z,18.20
2018-12-06T21:07:36.402Z,14.83
2018-12-06T21:10:05.016Z,12.23
2018-12-06T21:12:33.060Z,11.77
2018-12-06T21:15:00.821Z,12.37
2018-12-06T21:17:28.689Z,17.20
2018-12-06T21:19:56.910Z,16.40
2018-12-06T21:22:24.769Z,16.07
2018-12-06T21:24:52.547Z,17.47
2018-12-06T21:27:20.406Z,19.53
2018-12-06T21:29:48.383Z,15.07
2018-12-06T21:32:17.406Z,14.87
2018-12-06T21:34:45.201Z,26.77
2018-12-06T21:37:12.986Z,23.17
2018-12-06T21:39:40.704Z,15.80
2018-12-06T21:42:09.172Z,18.37
2018-12-06T21:44:36.985Z,16.83
2018-12-06T21:47:05.334Z,15.17
2018-12-06T21:49:33.229Z,17.30
2018-12-06T21:52:01.065Z,15.47
2018-12-06T21:54:28.854Z,21.27
2018-12-06T21:56:56.635Z,15.57
2018-12-06T21:59:24.510Z,17.30
2018-12-06T22:01:55.961Z,14.43
2018-12-06T22:04:23.819Z,19.50
2018-12-06T22:06:51.781Z,16.00
2018-12-06T22:09:19.570Z,18.13
2018-12-06T22:11:47.510Z,15.53
2018-12-06T22:14:15.336Z,18.00
2018-12-06T22:16:43.121Z,20.37
2018-12-06T22:19:10.944Z,18.83
2018-12-06T22:21:38.704Z,18.10
2018-12-06T22:24:06.426Z,13.63
2018-12-06T22:26:34.285Z,15.00
2018-12-06T22:29:02.922Z,16.07
2018-12-06T22:31:30.975Z,15.47
2018-12-06T22:33:58.893Z,12.73
2018-12-06T22:36:26.653Z,12.27
2018-12-06T22:38:54.416Z,16.83
2018-12-06T22:41:23.369Z,12.97
2018-12-06T22:43:51.341Z,19.20
2018-12-06T22:46:19.271Z,12.47
2018-12-06T22:48:47.065Z,12.03
2018-12-06T22:51:15.087Z,16.40
2018-12-06T22:53:42.896Z,15.00
2018-12-06T22:56:10.776Z,11.50
2018-12-06T22:58:38.961Z,14.40
2018-12-06T23:01:09.050Z,15.63
2018-12-06T23:03:37.143Z,10.50
2018-12-06T23:06:05.945Z,11.03
2018-12-06T23:08:33.696Z,13.40
2018-12-06T23:11:01.646Z,11.10
2018-12-06T23:13:29.383Z,11.90
2018-12-06T23:15:57.098Z,12.40
2018-12-06T23:18:25.049Z,15.00
2018-12-06T23:20:52.963Z,11.70
2018-12-06T23:23:20.837Z,9.63
2018-12-06T23:25:48.565Z,15.10
2018-12-06T23:28:16.406Z,12.57
2018-12-06T23:30:44.294Z,10.73
2018-12-06T23:33:11.982Z,10.67
2018-12-06T23:35:40.165Z,11.37
2018-12-06T23:38:08.205Z,10.83
2018-12-06T23:40:35.945Z,12.87
2018-12-06T23:43:03.839Z,9.03
2018-12-06T23:45:32.748Z,10.77
2018-12-06T23:48:00.494Z,11.13
2018-12-06T23:50:28.257Z,14.20
2018-12-06T23:52:55.989Z,11.10
2018-12-06T23:55:23.754Z,9.73
2018-12-06T23:57:51.485Z,10.40
